createdAt,value
2017-12-26T00:02:13.711Z,78.67
2017-12-26T00:08:17.339Z,78.49
2017-12-26T00:14:20.943Z,78.31
2017-12-26T00:20:24.671Z,78.28
2017-12-26T00:26:28.152Z,78.61
2017-12-26T00:32:32.609Z,78.78
2017-12-26T00:38:36.246Z,79.71
2017-12-26T00:44:40.527Z,80.76
2017-12-26T00:50:44.064Z,81.55
2017-12-26T00:56:48.374Z,82.37
2017-12-26T01:02:52.479Z,83.10
2017-12-26T01:08:56.773Z,84.36
2017-12-26T01:15:01.187Z,84.50
2017-12-26T01:21:04.755Z,85.05
2017-12-26T01:27:08.447Z,85.53
2017-12-26T01:33:12.100Z,86.17
2017-12-26T01:39:15.687Z,87.03
2017-12-26T01:45:19.982Z,86.79
2017-12-26T01:51:24.067Z,87.38
2017-12-26T01:57:27.951Z,87.66
2017-12-26T02:03:32.389Z,88.01
2017-12-26T02:09:36.009Z,88.84
2017-12-26T02:15:39.475Z,88.68
2017-12-26T02:21:43.767Z,88.69
2017-12-26T02:27:47.263Z,88.54
2017-12-26T02:33:51.158Z,88.28
2017-12-26T02:39:55.732Z,88.34
2017-12-26T02:46:00.294Z,87.33
2017-12-26T02:52:04.164Z,86.94
2017-12-26T02:58:08.569Z,86.76
2017-12-26T03:04:12.843Z,86.34
2017-12-26T03:10:16.395Z,86.97
2017-12-26T03:16:20.428Z,87.13
2017-12-26T03:22:24.107Z,87.77
2017-12-26T03:28:28.383Z,87.74
2017-12-26T03:34:32.627Z,88.27
2017-12-26T03:40:36.164Z,88.00
2017-12-26T03:46:39.735Z,87.58
2017-12-26T03:52:43.228Z,86.77
2017-12-26T03:58:47.479Z,87.08
2017-12-26T04:04:52.301Z,86.57
2017-12-26T04:10:55.841Z,86.23
2017-12-26T04:16:59.413Z,86.19
2017-12-26T04:23:02.881Z,87.13
2017-12-26T04:29:06.338Z,87.65
2017-12-26T04:35:09.838Z,87.76
2017-12-26T04:41:14.011Z,88.30
2017-12-26T04:47:18.272Z,88.14
2017-12-26T04:53:22.171Z,88.06
2017-12-26T04:59:25.752Z,87.98
2017-12-26T05:05:29.298Z,87.65
2017-12-26T05:11:32.830Z,87.78
2017-12-26T05:17:36.313Z,87.35
2017-12-26T05:23:40.077Z,86.80
2017-12-26T05:29:43.616Z,86.35
2017-12-26T05:35:47.325Z,86.39
2017-12-26T05:41:51.101Z,86.73
2017-12-26T05:47:54.824Z,86.80
2017-12-26T05:53:58.609Z,87.49
2017-12-26T06:00:02.121Z,87.78
2017-12-26T06:06:05.670Z,88.47
2017-12-26T06:12:09.218Z,88.50
2017-12-26T06:18:12.741Z,88.99
2017-12-26T06:24:16.406Z,88.99
2017-12-26T06:30:20.873Z,89.79
2017-12-26T06:36:25.178Z,89.21
2017-12-26T06:42:28.768Z,89.93
2017-12-26T06:48:32.248Z,89.94
2017-12-26T06:54:35.737Z,90.32
2017-12-26T07:00:39.264Z,89.78
2017-12-26T07:06:42.742Z,89.50
2017-12-26T07:12:46.271Z,89.35
2017-12-26T07:18:50.631Z,90.07
2017-12-26T07:24:54.816Z,89.94
2017-12-26T07:30:58.350Z,89.63
2017-12-26T07:37:01.998Z,89.40
2017-12-26T07:43:05.512Z,89.05
2017-12-26T07:49:08.984Z,89.35
2017-12-26T07:55:12.658Z,89.34
2017-12-26T08:01:16.128Z,89.40
2017-12-26T08:07:19.777Z,88.81
2017-12-26T08:13:23.543Z,88.07
2017-12-26T08:19:27.851Z,87.70
2017-12-26T08:25:32.105Z,86.72
2017-12-26T08:31:36.359Z,85.99
2017-12-26T08:37:39.904Z,85.12
2017-12-26T08:43:43.382Z,84.57
2017-12-26T08:49:47.324Z,84.72
2017-12-26T08:55:51.222Z,84.42
2017-12-26T09:01:55.263Z,83.95
2017-12-26T09:07:58.765Z,83.49
2017-12-26T09:14:02.379Z,83.11
2017-12-26T09:20:05.890Z,81.49
2017-12-26T09:26:09.509Z,79.27
2017-12-26T09:32:13.753Z,78.46
2017-12-26T09:38:17.250Z,78.49
2017-12-26T09:44:20.841Z,78.39
2017-12-26T09:50:24.435Z,78.08
2017-12-26T09:56:27.981Z,77.63
2017-12-26T10:02:31.502Z,77.82
2017-12-26T10:08:35.041Z,78.30
2017-12-26T10:14:38.690Z,79.63
2017-12-26T10:20:43.175Z,82.06
2017-12-26T10:26:46.750Z,83.73
2017-12-26T10:32:50.388Z,84.73
2017-12-26T10:38:53.961Z,85.14
2017-12-26T10:44:57.540Z,86.31
2017-12-26T10:51:01.075Z,86.93
2017-12-26T10:57:04.619Z,88.13
2017-12-26T11:03:08.235Z,89.15
2017-12-26T11:09:12.695Z,89.89
2017-12-26T11:15:16.523Z,90.21
2017-12-26T11:21:20.069Z,89.25
2017-12-26T11:27:24.218Z,86.90
2017-12-26T11:33:28.231Z,84.99
2017-12-26T11:39:31.724Z,86.38
2017-12-26T11:45:36.028Z,87.35
2017-12-26T11:51:39.520Z,86.05
2017-12-26T11:57:43.141Z,85.36
2017-12-26T12:03:46.823Z,82.44
2017-12-26T12:09:50.650Z,81.60
2017-12-26T12:15:54.148Z,82.05
2017-12-26T12:21:57.644Z,80.78
2017-12-26T12:28:01.144Z,81.09
2017-12-26T12:34:04.703Z,81.08
2017-12-26T12:40:08.276Z,79.24
2017-12-26T12:46:11.853Z,79.22
2017-12-26T12:52:15.720Z,80.20
2017-12-26T12:58:20.094Z,80.08
2017-12-26T13:04:23.922Z,79.74
2017-12-26T13:10:28.181Z,78.69
2017-12-26T13:16:31.682Z,77.96
2017-12-26T13:22:35.943Z,78.01
2017-12-26T13:28:40.246Z,77.05
2017-12-26T13:34:43.929Z,76.33
2017-12-26T13:40:47.853Z,76.34
2017-12-26T13:46:52.224Z,75.83
2017-12-26T13:52:56.763Z,75.44
2017-12-26T13:59:00.255Z,74.54
2017-12-26T14:05:04.539Z,74.72
2017-12-26T14:11:08.018Z,74.54
2017-12-26T14:17:11.495Z,73.68
2017-12-26T14:23:15.003Z,73.92
2017-12-26T14:29:18.609Z,74.75
2017-12-26T14:35:22.283Z,74.41
2017-12-26T14:41:26.089Z,74.89
2017-12-26T14:47:29.579Z,74.40
2017-12-26T14:53:33.300Z,74.90
2017-12-26T14:59:36.860Z,75.31
2017-12-26T15:05:40.393Z,76.48
2017-12-26T15:11:43.868Z,78.00
2017-12-26T15:17:47.537Z,76.64
2017-12-26T15:23:51.151Z,78.05
2017-12-26T15:29:55.488Z,79.24
2017-12-26T15:35:58.968Z,79.94
2017-12-26T15:42:02.693Z,80.66
2017-12-26T15:48:06.316Z,80.92
2017-12-26T15:54:10.244Z,80.91
2017-12-26T16:00:13.708Z,79.83
2017-12-26T16:06:18.249Z,81.23
2017-12-26T16:12:22.299Z,82.39
2017-12-26T16:18:26.055Z,82.12
2017-12-26T16:24:29.905Z,81.48
2017-12-26T16:30:33.454Z,81.13
2017-12-26T16:36:37.056Z,81.21
2017-12-26T16:42:40.809Z,81.00
2017-12-26T16:48:44.402Z,82.83
2017-12-26T16:54:48.769Z,84.92
2017-12-26T17:00:53.387Z,86.81
2017-12-26T17:06:57.058Z,87.68
2017-12-26T17:13:00.582Z,88.93
2017-12-26T17:19:04.193Z,89.89
2017-12-26T17:25:07.737Z,89.78
2017-12-26T17:31:11.305Z,89.30
2017-12-26T17:37:14.798Z,88.30
2017-12-26T17:43:19.059Z,87.37
2017-12-26T17:49:22.559Z,85.31
2017-12-26T17:55:27.053Z,84.80
2017-12-26T18:01:30.532Z,84.96
2017-12-26T18:07:34.269Z,84.96
2017-12-26T18:13:37.729Z,84.09
2017-12-26T18:19:41.299Z,83.91
2017-12-26T18:25:44.762Z,84.04
2017-12-26T18:31:49.214Z,84.23
2017-12-26T18:37:53.755Z,84.92
2017-12-26T18:43:58.104Z,85.11
2017-12-26T18:50:02.560Z,85.40
2017-12-26T18:56:06.142Z,85.01
2017-12-26T19:02:10.384Z,84.61
2017-12-26T19:08:13.910Z,84.11
2017-12-26T19:14:17.633Z,83.45
2017-12-26T19:20:21.548Z,83.30
2017-12-26T19:26:25.533Z,82.63
2017-12-26T19:32:29.140Z,81.26
2017-12-26T19:38:32.755Z,80.69
2017-12-26T19:44:36.260Z,79.79
2017-12-26T19:50:39.865Z,79.73
2017-12-26T19:56:44.403Z,79.54
2017-12-26T20:02:47.971Z,80.05
2017-12-26T20:08:51.940Z,79.14
2017-12-26T20:14:56.038Z,79.13
2017-12-26T20:20:59.552Z,79.07
2017-12-26T20:27:03.060Z,79.10
2017-12-26T20:33:07.694Z,79.47
2017-12-26T20:39:11.183Z,79.73
2017-12-26T20:45:15.413Z,79.45
2017-12-26T20:51:19.005Z,80.03
2017-12-26T20:57:22.938Z,80.23
2017-12-26T21:03:26.582Z,80.42
2017-12-26T21:09:30.049Z,80.90
2017-12-26T21:15:33.549Z,80.75
2017-12-26T21:21:37.894Z,81.99
2017-12-26T21:27:41.357Z,82.80
2017-12-26T21:33:45.675Z,82.67
2017-12-26T21:39:49.125Z,82.85
2017-12-26T21:45:53.060Z,82.45
2017-12-26T21:51:56.751Z,81.52
2017-12-26T21:58:00.239Z,80.95
2017-12-26T22:04:03.696Z,81.51
2017-12-26T22:10:07.248Z,85.19
2017-12-26T22:16:10.795Z,82.77
2017-12-26T22:22:14.291Z,83.91
2017-12-26T22:28:18.628Z,84.54
2017-12-26T22:34:22.714Z,84.69
2017-12-26T22:40:26.493Z,84.52
2017-12-26T22:46:30.032Z,84.84
2017-12-26T22:52:33.505Z,85.53
2017-12-26T22:58:37.211Z,85.94
2017-12-26T23:04:40.724Z,86.33
2017-12-26T23:10:44.220Z,86.95
2017-12-26T23:16:53.161Z,87.36
2017-12-26T23:23:02.434Z,86.43
2017-12-26T23:29:12.200Z,86.78
2017-12-26T23:35:22.011Z,86.31
2017-12-26T23:41:31.790Z,86.87
2017-12-26T23:47:40.861Z,87.17
2017-12-26T23:53:49.854Z,87.34
2017-12-26T23:59:59.163Z,87.85
